Time;durP1;ratioP1;P1;durP2;ratioP2;P2;SDS_P1;SDS_P2;PMS_P1;PMS_P2;Temp;Humidity;BMP_temperature;BMP_pressure;BME280_temperature;BME280_humidity;BME280_pressure;Samples;Min_cycle;Max_cycle;Signal;HPM_P1;HPM_P2
2021/01/10 00:00:07;;;;;;;10.60;8.90;;;;;;;-1.38;93.92;98605.97;5001317;28;20802;-71
2021/01/10 00:02:34;;;;;;;9.30;8.33;;;;;;;-1.47;95.25;98603.81;5001292;28;20936;-71
2021/01/10 00:05:02;;;;;;;10.80;9.70;;;;;;;-1.40;94.58;98604.34;5001636;28;20255;-71
2021/01/10 00:07:29;;;;;;;9.40;8.43;;;;;;;-1.28;94.48;98600.31;4998905;28;20201;-71
2021/01/10 00:09:56;;;;;;;10.33;8.97;;;;;;;-1.43;94.73;98594.94;5000845;28;20457;-70
2021/01/10 00:12:24;;;;;;;9.80;8.90;;;;;;;-1.41;95.57;98610.47;4997632;28;20464;-71
2021/01/10 00:14:54;;;;;;;9.17;8.37;;;;;;;-1.38;94.92;98602.50;5000312;28;20554;-69
2021/01/10 00:17:21;;;;;;;8.97;8.07;;;;;;;-1.44;93.40;98600.22;4999310;28;20450;-70
2021/01/10 00:19:49;;;;;;;12.30;8.60;;;;;;;-1.52;95.16;98601.41;5001167;28;20447;-71
2021/01/10 00:22:18;;;;;;;9.20;8.27;;;;;;;-1.51;94.03;98599.69;5000051;28;20241;-71
2021/01/10 00:24:46;;;;;;;9.63;8.63;;;;;;;-1.47;95.40;98593.41;5000378;28;20302;-71
2021/01/10 00:27:14;;;;;;;9.80;8.90;;;;;;;-1.47;94.77;98590.81;4998938;28;20678;-70
2021/01/10 00:29:43;;;;;;;9.23;8.33;;;;;;;-1.44;95.19;98592.41;5001635;28;20279;-70
2021/01/10 00:32:12;;;;;;;9.47;8.57;;;;;;;-1.51;94.37;98594.47;5000902;28;20456;-71
2021/01/10 00:34:39;;;;;;;9.73;8.10;;;;;;;-1.52;95.41;98603.16;5001281;28;20691;-70
2021/01/10 00:37:13;;;;;;;8.60;7.80;;;;;;;-1.49;94.93;98598.66;5000382;28;20209;-71
2021/01/10 00:39:40;;;;;;;9.60;8.70;;;;;;;-1.50;95.15;98607.38;5003082;28;20196;-71
2021/01/10 00:42:09;;;;;;;8.93;8.20;;;;;;;-1.54;94.73;98600.66;5004513;28;20463;-71
2021/01/10 00:44:36;;;;;;;8.90;8.10;;;;;;;-1.55;95.59;98605.91;5005121;28;20566;-71
2021/01/10 00:47:04;;;;;;;9.53;7.70;;;;;;;-1.53;94.37;98611.88;5004954;28;20201;-71
2021/01/10 00:49:33;;;;;;;10.57;8.13;;;;;;;-1.51;95.26;98610.06;5005717;28;20487;-71
2021/01/10 00:52:00;;;;;;;8.97;8.10;;;;;;;-1.56;95.19;98602.47;5005356;28;20450;-71
2021/01/10 00:54:27;;;;;;;9.87;8.83;;;;;;;-1.56;96.02;98606.81;5003110;28;20892;-71
2021/01/10 00:56:55;;;;;;;9.10;8.20;;;;;;;-1.64;95.92;98613.22;5003622;28;21025;-71
2021/01/10 00:59:22;;;;;;;10.07;8.53;;;;;;;-1.68;96.45;98610.88;5000708;28;20963;-71
2021/01/10 01:01:49;;;;;;;8.87;8.07;;;;;;;-1.53;95.41;98611.88;5004091;28;20455;-71
2021/01/10 01:04:17;;;;;;;9.53;8.10;;;;;;;-1.49;95.79;98613.44;5003309;28;20528;-71
2021/01/10 01:06:45;;;;;;;9.47;8.57;;;;;;;-1.57;95.88;98613.78;4999820;28;20448;-71
2021/01/10 01:09:13;;;;;;;8.27;7.47;;;;;;;-1.64;96.36;98613.22;5003476;28;20444;-71
2021/01/10 01:11:40;;;;;;;9.83;8.50;;;;;;;-1.67;96.46;98617.75;5003947;28;20964;-70
2021/01/10 01:14:10;;;;;;;10.17;9.13;;;;;;;-1.65;96.58;98614.16;5003107;28;21130;-70
2021/01/10 01:16:40;;;;;;;9.17;8.27;;;;;;;-1.60;96.88;98606.97;5002271;28;20448;-71
2021/01/10 01:19:08;;;;;;;8.23;7.37;;;;;;;-1.68;96.39;98610.88;5003390;28;20447;-71
2021/01/10 01:21:35;;;;;;;9.13;8.23;;;;;;;-1.70;97.55;98612.69;5005238;28;20440;-71
2021/01/10 01:24:05;;;;;;;9.77;8.87;;;;;;;-1.80;97.04;98618.28;5004162;28;20487;-71
2021/01/10 01:26:32;;;;;;;9.03;8.23;;;;;;;-1.70;98.19;98620.50;5004490;28;20915;-71
2021/01/10 01:28:59;;;;;;;9.90;8.87;;;;;;;-1.85;98.56;98628.06;5004849;28;20983;-71
2021/01/10 01:31:29;;;;;;;9.13;8.17;;;;;;;-1.81;98.71;98624.41;5005084;28;20840;-71
2021/01/10 01:33:57;;;;;;;8.87;7.97;;;;;;;-1.83;98.34;98625.41;5003653;28;20494;-71
2021/01/10 01:36:27;;;;;;;10.27;8.70;;;;;;;-1.73;97.63;98623.22;5003701;28;20439;-71
2021/01/10 01:38:55;;;;;;;8.93;8.03;;;;;;;-1.69;97.58;98622.19;5002744;28;20447;-71
2021/01/10 01:41:23;;;;;;;10.53;8.40;;;;;;;-1.87;99.20;98629.88;5003864;28;20824;-71
2021/01/10 01:43:51;;;;;;;9.33;8.43;;;;;;;-1.81;98.45;98629.59;5002825;28;20470;-72
2021/01/10 01:46:27;;;;;;;8.97;8.07;;;;;;;-1.67;97.28;98622.94;5004143;28;20454;-71
2021/01/10 01:48:55;;;;;;;8.33;7.53;;;;;;;-1.68;98.44;98626.47;5002597;28;20526;-71
2021/01/10 01:51:22;;;;;;;9.33;8.43;;;;;;;-1.76;97.46;98629.41;5004084;28;20444;-71
2021/01/10 01:53:49;;;;;;;9.67;8.77;;;;;;;-1.65;96.96;98636.72;5002203;28;20491;-71
2021/01/10 01:56:16;;;;;;;9.63;8.67;;;;;;;-1.73;98.19;98636.19;5004075;28;20788;-71
2021/01/10 01:58:58;;;;;;;8.47;7.77;;;;;;;-1.65;97.19;98639.31;5004091;28;20695;-71
2021/01/10 02:01:26;;;;;;;9.63;7.77;;;;;;;-1.75;98.45;98642.31;5001337;28;20444;-72
2021/01/10 02:04:00;;;;;;;9.97;8.70;;;;;;;-1.76;97.98;98645.81;5002685;28;20470;-71
2021/01/10 02:06:31;;;;;;;9.17;8.37;;;;;;;-1.69;97.51;98638.59;5001334;28;20999;-71
2021/01/10 02:09:04;;;;;;;9.93;8.93;;;;;;;-1.66;98.66;98629.84;5002741;28;20492;-71
2021/01/10 02:11:33;;;;;;;8.87;8.03;;;;;;;-1.69;98.40;98627.38;5001902;28;20432;-70
2021/01/10 02:14:04;;;;;;;10.27;9.17;;;;;;;-1.56;97.15;98627.63;5001821;28;20487;-72
2021/01/10 02:16:31;;;;;;;8.53;7.73;;;;;;;-1.76;96.97;98625.03;4998685;28;21402;-72
2021/01/10 02:18:58;;;;;;;10.03;9.03;;;;;;;-1.85;98.64;98632.44;5001726;28;20456;-71
2021/01/10 02:21:27;;;;;;;9.70;8.70;;;;;;;-1.83;97.81;98631.44;5002528;28;20448;-72
2021/01/10 02:24:00;;;;;;;10.00;9.00;;;;;;;-2.01;98.99;98633.09;5002725;28;21096;-72
2021/01/10 02:26:29;;;;;;;9.70;8.70;;;;;;;-1.96;99.78;98630.31;5003558;28;20443;-71
2021/01/10 02:28:57;;;;;;;9.27;8.37;;;;;;;-1.88;98.91;98633.41;5002912;28;20474;-71
2021/01/10 02:31:24;;;;;;;9.10;8.30;;;;;;;-1.90;99.22;98635.22;5003988;28;20455;-70
2021/01/10 02:33:53;;;;;;;10.10;8.87;;;;;;;-1.95;98.65;98635.44;5002901;28;20236;-70
2021/01/10 02:36:26;;;;;;;10.13;8.80;;;;;;;-1.99;99.45;98640.84;5002590;28;20448;-71
2021/01/10 02:38:57;;;;;;;9.97;8.83;;;;;;;-2.05;99.55;98640.22;5001338;28;20443;-71
2021/01/10 02:41:35;;;;;;;9.83;8.90;;;;;;;-1.98;99.65;98638.16;5001235;28;20794;-70
2021/01/10 02:44:11;;;;;;;10.30;9.30;;;;;;;-2.08;100.00;98629.97;5003115;28;20467;-71
2021/01/10 02:46:39;;;;;;;9.30;8.40;;;;;;;-2.09;100.00;98627.41;5001685;28;20577;-71
2021/01/10 02:49:07;;;;;;;10.27;9.30;;;;;;;-2.24;100.00;98632.41;4999526;28;20209;-70
2021/01/10 02:51:34;;;;;;;9.73;8.67;;;;;;;-2.29;100.00;98629.13;5002238;28;20456;-70
2021/01/10 02:54:02;;;;;;;10.07;9.10;;;;;;;-2.31;100.00;98627.53;4999691;28;20511;-70
2021/01/10 02:56:31;;;;;;;9.67;8.67;;;;;;;-2.35;100.00;98624.22;5000099;28;20452;-70
2021/01/10 02:58:59;;;;;;;9.30;8.40;;;;;;;-2.50;100.00;98628.31;4999266;28;20972;-71
2021/01/10 03:01:26;;;;;;;9.77;8.77;;;;;;;-2.59;100.00;98616.59;5001042;28;21219;-71
2021/01/10 03:03:54;;;;;;;10.87;9.77;;;;;;;-2.56;100.00;98623.38;5000837;28;20538;-71
2021/01/10 03:06:21;;;;;;;10.13;9.10;;;;;;;-2.60;100.00;98624.44;5001397;28;20786;-70
2021/01/10 03:08:49;;;;;;;9.83;8.83;;;;;;;-2.68;100.00;98612.63;5001837;28;20448;-71
2021/01/10 03:11:16;;;;;;;9.77;8.83;;;;;;;-2.72;100.00;98615.41;4998716;28;20464;-70
2021/01/10 03:13:44;;;;;;;9.80;8.80;;;;;;;-2.83;100.00;98613.28;4997961;28;20947;-71
2021/01/10 03:16:12;;;;;;;10.13;9.13;;;;;;;-2.79;100.00;98620.88;5002156;28;20873;-70
2021/01/10 03:18:39;;;;;;;11.17;9.77;;;;;;;-2.99;100.00;98618.28;5000367;28;20453;-70
2021/01/10 03:21:06;;;;;;;10.00;9.00;;;;;;;-2.92;100.00;98619.69;5002939;28;20833;-71
2021/01/10 03:23:33;;;;;;;9.50;8.60;;;;;;;-2.88;100.00;98615.22;5001800;28;20948;-70
2021/01/10 03:26:00;;;;;;;10.30;9.27;;;;;;;-2.94;100.00;98611.13;5000134;28;20456;-71
2021/01/10 03:28:27;;;;;;;9.57;8.57;;;;;;;-2.99;100.00;98615.69;5002165;28;20752;-70
2021/01/10 03:30:55;;;;;;;9.97;8.97;;;;;;;-3.07;100.00;98614.22;5002496;28;20455;-71
2021/01/10 03:33:22;;;;;;;10.50;9.43;;;;;;;-3.07;100.00;98618.59;5002718;28;20522;-71
2021/01/10 03:35:49;;;;;;;10.07;9.07;;;;;;;-3.12;100.00;98615.34;5002040;28;20693;-71
2021/01/10 03:38:16;;;;;;;9.87;8.97;;;;;;;-3.13;100.00;98617.06;4998250;28;20816;-71
2021/01/10 03:40:43;;;;;;;9.70;8.77;;;;;;;-3.01;100.00;98622.69;4999491;28;21202;-71
2021/01/10 03:43:10;;;;;;;10.03;9.03;;;;;;;-3.08;100.00;98617.72;5000455;28;20444;-70
2021/01/10 03:45:38;;;;;;;12.40;9.90;;;;;;;-3.14;100.00;98617.97;5001874;28;20474;-69
2021/01/10 03:48:06;;;;;;;10.73;9.67;;;;;;;-3.21;100.00;98612.22;5000510;28;20470;-70
2021/01/10 03:50:34;;;;;;;11.83;9.20;;;;;;;-3.24;100.00;98617.50;5003192;28;20454;-69
2021/01/10 03:53:01;;;;;;;9.90;9.00;;;;;;;-3.30;100.00;98619.50;5000039;28;20466;-70
2021/01/10 03:55:28;;;;;;;11.67;9.93;;;;;;;-3.27;100.00;98630.59;5002640;28;20496;-70
2021/01/10 03:57:55;;;;;;;10.10;9.10;;;;;;;-3.23;100.00;98626.97;5001737;28;20448;-71
2021/01/10 04:00:22;;;;;;;10.80;9.77;;;;;;;-3.29;100.00;98623.78;5002025;28;20436;-70
2021/01/10 04:02:49;;;;;;;13.03;10.50;;;;;;;-3.30;100.00;98622.94;4997973;28;20525;-70
2021/01/10 04:05:17;;;;;;;10.70;9.67;;;;;;;-3.37;100.00;98622.34;5000968;28;20471;-70
2021/01/10 04:07:44;;;;;;;11.00;9.80;;;;;;;-3.35;100.00;98630.91;4998578;28;20853;-71
2021/01/10 04:10:12;;;;;;;10.40;9.20;;;;;;;-3.43;100.00;98625.16;5000953;28;20455;-71
2021/01/10 04:12:39;;;;;;;11.50;10.30;;;;;;;-3.41;100.00;98622.53;5000576;28;20452;-69
2021/01/10 04:15:07;;;;;;;10.77;9.37;;;;;;;-3.40;100.00;98611.25;5002526;28;20599;-70
2021/01/10 04:17:34;;;;;;;11.63;9.90;;;;;;;-3.41;100.00;98613.00;5002722;28;20470;-71
2021/01/10 04:20:02;;;;;;;9.80;8.80;;;;;;;-3.41;100.00;98613.00;5004919;28;20491;-71
2021/01/10 04:22:31;;;;;;;10.23;9.23;;;;;;;-3.42;100.00;98616.47;5001937;28;20467;-71
2021/01/10 04:24:58;;;;;;;10.47;9.40;;;;;;;-3.52;100.00;98615.16;5003055;28;20474;-71
2021/01/10 04:27:25;;;;;;;10.27;9.13;;;;;;;-3.45;100.00;98608.81;5005322;28;20791;-72
2021/01/10 04:29:53;;;;;;;10.77;9.57;;;;;;;-3.54;100.00;98611.78;5004956;28;20440;-71
2021/01/10 04:32:21;;;;;;;11.53;10.13;;;;;;;-3.58;100.00;98613.69;5005328;28;20440;-71
2021/01/10 04:34:49;;;;;;;11.60;10.23;;;;;;;-3.47;100.00;98607.22;4998075;28;20995;-66
2021/01/10 04:37:16;;;;;;;12.93;10.20;;;;;;;-3.42;100.00;98602.69;5001238;28;20459;-71
2021/01/10 04:39:44;;;;;;;10.27;9.30;;;;;;;-3.43;100.00;98599.25;5004399;28;20925;-68
2021/01/10 04:42:14;;;;;;;10.37;9.20;;;;;;;-3.53;100.00;98603.97;5003045;28;20475;-69
2021/01/10 04:44:41;;;;;;;11.03;9.20;;;;;;;-3.53;100.00;98598.78;5005026;28;20495;-70
2021/01/10 04:47:08;;;;;;;10.17;9.17;;;;;;;-3.49;100.00;98602.09;5001645;28;21367;-71
2021/01/10 04:49:36;;;;;;;10.33;9.33;;;;;;;-3.51;100.00;98609.06;5000181;28;20444;-71
2021/01/10 04:52:04;;;;;;;11.07;10.07;;;;;;;-3.51;100.00;98609.94;5002767;28;20450;-71
2021/01/10 04:54:36;;;;;;;9.87;8.87;;;;;;;-3.61;100.00;98606.00;4999089;28;20483;-70
2021/01/10 04:57:07;;;;;;;11.17;10.07;;;;;;;-3.64;100.00;98606.13;5003086;28;20838;-71
2021/01/10 04:59:34;;;;;;;11.50;8.80;;;;;;;-3.65;100.00;98610.47;5002499;28;20447;-71
2021/01/10 05:02:02;;;;;;;10.47;9.47;;;;;;;-3.69;100.00;98615.81;4999660;28;20972;-70
2021/01/10 05:04:30;;;;;;;10.37;9.27;;;;;;;-3.61;100.00;98616.34;4996129;28;20484;-69
2021/01/10 05:06:57;;;;;;;9.27;8.37;;;;;;;-3.56;100.00;98619.63;5004088;28;20452;-70
2021/01/10 05:09:25;;;;;;;9.67;8.67;;;;;;;-3.50;100.00;98628.91;4997721;28;20555;-68
2021/01/10 05:11:53;;;;;;;10.33;9.27;;;;;;;-3.54;100.00;98623.00;5000486;28;20451;-70
2021/01/10 05:14:21;;;;;;;10.70;9.67;;;;;;;-3.67;100.00;98627.81;5001845;28;20857;-70
2021/01/10 05:16:48;;;;;;;10.60;8.97;;;;;;;-3.49;100.00;98622.81;5003381;28;20448;-70
2021/01/10 05:19:20;;;;;;;9.90;8.00;;;;;;;-3.57;100.00;98628.31;5001140;28;20448;-70
2021/01/10 05:21:47;;;;;;;10.50;8.77;;;;;;;-3.57;100.00;98628.31;5001108;28;20471;-68
2021/01/10 05:24:17;;;;;;;10.40;8.77;;;;;;;-3.53;100.00;98635.06;4999938;28;20464;-70
2021/01/10 05:26:46;;;;;;;10.83;9.73;;;;;;;-3.53;100.00;98636.81;5002415;28;20448;-70
2021/01/10 05:29:13;;;;;;;9.37;8.47;;;;;;;-3.59;100.00;98629.28;5001227;28;20467;-70
2021/01/10 05:31:42;;;;;;;10.23;9.23;;;;;;;-3.67;100.00;98639.91;4999075;28;20456;-70
2021/01/10 05:34:10;;;;;;;9.40;8.50;;;;;;;-3.67;100.00;98635.59;4999180;28;21011;-70
2021/01/10 05:36:38;;;;;;;11.87;9.33;;;;;;;-3.68;100.00;98636.50;5002707;28;20838;-68
2021/01/10 05:39:16;;;;;;;9.70;8.80;;;;;;;-3.66;100.00;98644.19;5001261;28;20455;-70
2021/01/10 05:41:50;;;;;;;9.67;8.67;;;;;;;-3.52;100.00;98644.53;5003850;28;20440;-70
2021/01/10 05:44:17;;;;;;;10.47;9.13;;;;;;;-3.58;100.00;98649.94;5002784;28;20476;-68
2021/01/10 05:46:45;;;;;;;9.60;8.60;;;;;;;-3.57;100.00;98648.19;5004151;28;20455;-69
2021/01/10 05:49:20;;;;;;;9.23;8.33;;;;;;;-3.47;100.00;98643.50;4999455;28;20456;-69
2021/01/10 05:51:47;;;;;;;9.63;8.73;;;;;;;-3.42;100.00;98645.00;5000834;28;20579;-68
2021/01/10 05:54:34;;;;;;;11.40;9.77;;;;;;;-3.49;100.00;98640.97;4998769;28;20495;-68
2021/01/10 05:57:03;;;;;;;9.57;8.63;;;;;;;-3.53;100.00;98647.16;5003127;28;20522;-67
2021/01/10 05:59:33;;;;;;;9.20;8.30;;;;;;;-3.46;100.00;98651.19;5002424;28;20436;-69
2021/01/10 06:02:03;;;;;;;9.00;7.67;;;;;;;-3.46;100.00;98648.59;5002451;28;20455;-69
2021/01/10 06:04:31;;;;;;;9.90;9.00;;;;;;;-3.48;100.00;98658.19;4997902;28;20452;-69
2021/01/10 06:06:59;;;;;;;9.67;8.77;;;;;;;-3.38;100.00;98661.28;5001565;28;20495;-69
2021/01/10 06:09:26;;;;;;;10.00;8.80;;;;;;;-3.36;100.00;98651.69;5000597;28;20460;-68
2021/01/10 06:11:53;;;;;;;10.33;9.33;;;;;;;-3.43;100.00;98658.03;5001340;28;20511;-69
2021/01/10 06:14:22;;;;;;;10.37;9.27;;;;;;;-3.52;100.00;98652.31;4996902;28;20514;-68
2021/01/10 06:16:54;;;;;;;10.50;9.43;;;;;;;-3.58;100.00;98656.88;4996971;28;20464;-69
2021/01/10 06:19:27;;;;;;;9.73;8.30;;;;;;;-3.62;100.00;98658.72;5000098;28;20456;-67
2021/01/10 06:22:00;;;;;;;10.43;9.33;;;;;;;-3.62;100.00;98666.50;5002224;28;20754;-68
2021/01/10 06:24:33;;;;;;;9.87;8.97;;;;;;;-3.63;100.00;98657.03;4997554;28;20475;-69
2021/01/10 06:27:06;;;;;;;16.83;13.63;;;;;;;-3.67;100.00;98658.06;5003914;28;20463;-69
2021/01/10 06:29:39;;;;;;;163.63;72.27;;;;;;;-3.79;100.00;98659.34;5003784;28;20451;-69
2021/01/10 06:32:10;;;;;;;26.43;17.33;;;;;;;-3.63;100.00;98662.22;5002498;28;20467;-69
2021/01/10 06:34:42;;;;;;;37.00;33.00;;;;;;;-3.59;100.00;98650.84;5003170;28;20483;-69
2021/01/10 06:37:10;;;;;;;27.93;22.13;;;;;;;-3.68;100.00;98661.53;5001880;28;20448;-69
2021/01/10 06:39:40;;;;;;;21.13;19.00;;;;;;;-3.65;100.00;98662.28;5003641;28;20487;-67
2021/01/10 06:42:12;;;;;;;10.87;9.80;;;;;;;-3.65;100.00;98657.09;5002426;28;20448;-68
2021/01/10 06:44:47;;;;;;;11.93;8.97;;;;;;;-3.61;100.00;98663.00;5002612;28;20470;-67
2021/01/10 06:47:19;;;;;;;10.50;9.50;;;;;;;-3.56;100.00;98660.25;5001234;28;20489;-69
2021/01/10 06:49:48;;;;;;;17.07;13.23;;;;;;;-3.56;100.00;98660.25;5003296;28;20531;-69
2021/01/10 06:52:19;;;;;;;12.53;10.60;;;;;;;-3.52;100.00;98656.63;5001347;28;20459;-69
2021/01/10 06:54:48;;;;;;;36.07;24.83;;;;;;;-3.50;100.00;98660.84;5002915;28;20487;-69
2021/01/10 06:57:15;;;;;;;12.53;11.23;;;;;;;-3.44;100.00;98671.88;5002780;28;20451;-69
2021/01/10 06:59:57;;;;;;;10.40;9.30;;;;;;;-3.10;100.00;98668.81;5001683;28;20571;-69
2021/01/10 07:02:24;;;;;;;16.13;11.97;;;;;;;-3.17;100.00;98671.72;4998907;28;20952;-68
2021/01/10 07:04:57;;;;;;;10.40;9.37;;;;;;;-3.33;100.00;98671.47;4999207;28;21055;-68
2021/01/10 07:07:42;;;;;;;11.23;10.13;;;;;;;-3.29;100.00;98673.88;4998737;28;20952;-70
2021/01/10 07:10:24;;;;;;;10.10;9.17;;;;;;;-3.24;100.00;98677.13;5001324;28;20444;-67
2021/01/10 07:12:51;;;;;;;9.97;9.03;;;;;;;-3.30;100.00;98672.19;4998561;28;20439;-68
2021/01/10 07:15:30;;;;;;;10.07;9.00;;;;;;;-3.10;100.00;98679.19;5001429;28;20491;-70
2021/01/10 07:18:11;;;;;;;10.00;9.00;;;;;;;-3.28;100.00;98672.97;4996977;28;20593;-71
2021/01/10 07:20:41;;;;;;;10.10;8.83;;;;;;;-3.14;100.00;98680.22;5002523;28;20594;-68
2021/01/10 07:23:28;;;;;;;13.23;9.17;;;;;;;-3.23;100.00;98678.81;5000823;28;20579;-69
2021/01/10 07:25:55;;;;;;;9.37;8.50;;;;;;;-3.24;100.00;98677.13;5000365;28;20446;-69
2021/01/10 07:28:36;;;;;;;11.53;10.33;;;;;;;-3.29;100.00;98681.66;4999458;28;20456;-69
2021/01/10 07:31:14;;;;;;;11.27;10.23;;;;;;;-3.12;100.00;98682.75;5000425;28;20455;-69
2021/01/10 07:33:43;;;;;;;11.97;10.57;;;;;;;-3.08;100.00;98679.13;4998481;28;20467;-68
2021/01/10 07:36:11;;;;;;;12.57;10.83;;;;;;;-3.05;100.00;98668.63;5000409;28;20454;-67
2021/01/10 07:38:40;;;;;;;10.57;9.40;;;;;;;-3.02;100.00;98673.69;5001076;28;20691;-66
2021/01/10 07:41:28;;;;;;;11.20;10.10;;;;;;;-2.96;100.00;98673.44;5000335;28;20456;-70
2021/01/10 07:43:57;;;;;;;11.10;9.97;;;;;;;-2.71;100.00;98669.84;5000658;28;20475;-70
2021/01/10 07:46:57;;;;;;;11.10;9.87;;;;;;;-2.68;100.00;98671.47;5003045;28;20547;-68
2021/01/10 07:49:26;;;;;;;12.43;10.53;;;;;;;-2.80;100.00;98670.25;4939824;29;20447;-70
2021/01/10 07:51:55;;;;;;;11.10;9.83;;;;;;;-2.79;100.00;98671.94;4939286;29;20462;-70
2021/01/10 07:54:52;;;;;;;11.57;10.37;;;;;;;-2.82;100.00;98666.88;4967141;28;20496;-68
2021/01/10 07:57:26;;;;;;;9.90;8.90;;;;;;;-2.64;100.00;98665.25;4997409;28;20464;-69
2021/01/10 08:00:19;;;;;;;11.30;9.37;;;;;;;-2.65;100.00;98679.16;4998292;28;20458;-70
2021/01/10 08:02:51;;;;;;;11.37;10.17;;;;;;;-2.45;100.00;98680.03;4979979;28;20469;-69
2021/01/10 08:05:19;;;;;;;10.53;9.63;;;;;;;-2.38;100.00;98684.06;4995464;28;20906;-69
2021/01/10 08:08:01;;;;;;;182.53;85.27;;;;;;;-2.48;100.00;98687.06;4996079;28;20455;-70
2021/01/10 08:10:41;;;;;;;132.60;62.57;;;;;;;-2.54;100.00;98683.84;4998529;28;20458;-69
2021/01/10 08:13:27;;;;;;;32.17;20.67;;;;;;;-2.59;100.00;98683.22;4993325;28;20495;-69
2021/01/10 08:15:54;;;;;;;11.53;10.37;;;;;;;-2.53;100.00;98688.13;4994882;28;20724;-70
2021/01/10 08:18:23;;;;;;;10.53;9.47;;;;;;;-2.51;100.00;98691.50;4999189;28;20456;-71
2021/01/10 08:20:50;;;;;;;10.13;8.83;;;;;;;-2.41;100.00;98685.06;4996773;28;20857;-70
2021/01/10 08:23:18;;;;;;;10.93;9.90;;;;;;;-2.37;100.00;98689.19;4999790;28;20971;-71
2021/01/10 08:25:46;;;;;;;10.47;9.40;;;;;;;-2.51;100.00;98681.13;4999255;28;20467;-70
2021/01/10 08:28:17;;;;;;;11.27;10.17;;;;;;;-2.43;100.00;98686.00;4998525;28;20639;-70
2021/01/10 08:30:44;;;;;;;11.10;9.97;;;;;;;-2.39;100.00;98691.03;4999323;28;20451;-69
2021/01/10 08:33:17;;;;;;;10.13;9.17;;;;;;;-2.20;100.00;98685.03;5001986;28;20209;-69
2021/01/10 08:35:44;;;;;;;11.00;9.73;;;;;;;-2.13;100.00;98686.44;4998670;28;20272;-70
2021/01/10 08:38:11;;;;;;;11.33;9.80;;;;;;;-2.13;100.00;98688.22;5002418;28;20436;-70
2021/01/10 08:40:39;;;;;;;12.37;10.23;;;;;;;-2.08;100.00;98696.63;5001089;28;20241;-68
2021/01/10 08:43:06;;;;;;;12.23;10.10;;;;;;;-2.00;100.00;98693.72;4999193;28;20955;-69
2021/01/10 08:45:34;;;;;;;11.63;10.07;;;;;;;-2.12;100.00;98690.72;5000019;28;20221;-70
2021/01/10 08:48:02;;;;;;;11.93;10.77;;;;;;;-1.95;100.00;98689.16;4999627;28;20213;-69
2021/01/10 08:50:38;;;;;;;10.97;9.97;;;;;;;-1.67;100.00;98690.53;4999525;28;20983;-70
2021/01/10 08:53:05;;;;;;;12.23;11.03;;;;;;;-1.86;100.00;98691.34;4996255;28;21292;-69
2021/01/10 08:55:36;;;;;;;11.27;10.23;;;;;;;-1.82;100.00;98684.25;5000063;28;20483;-70
2021/01/10 08:58:07;;;;;;;11.60;10.40;;;;;;;-1.96;100.00;98690.06;4997754;28;21161;-69
2021/01/10 09:00:34;;;;;;;11.33;10.03;;;;;;;-1.80;100.00;98688.47;5000603;28;20672;-68
2021/01/10 09:03:15;;;;;;;10.77;9.77;;;;;;;-1.61;100.00;98693.66;5002555;28;21042;-70
2021/01/10 09:05:44;;;;;;;12.67;10.73;;;;;;;-1.63;99.12;98699.88;5003407;28;20833;-70
2021/01/10 09:08:17;;;;;;;10.60;9.70;;;;;;;-1.79;100.00;98694.50;5001201;28;20219;-69
2021/01/10 09:10:51;;;;;;;13.33;10.30;;;;;;;-1.93;100.00;98695.13;4997140;28;20209;-70
2021/01/10 09:13:22;;;;;;;11.77;10.57;;;;;;;-1.72;100.00;98695.06;5001484;28;20908;-69
2021/01/10 09:15:53;;;;;;;11.87;10.77;;;;;;;-1.76;99.92;98699.56;5001657;28;20236;-71
2021/01/10 09:18:23;;;;;;;11.40;10.20;;;;;;;-1.80;100.00;98706.66;5002660;28;20452;-70
2021/01/10 09:20:53;;;;;;;11.60;10.40;;;;;;;-1.76;100.00;98694.38;4998848;28;20220;-71
2021/01/10 09:23:20;;;;;;;12.67;11.37;;;;;;;-1.72;100.00;98700.25;5002437;28;20229;-69
2021/01/10 09:25:47;;;;;;;14.13;12.23;;;;;;;-1.49;100.00;98705.28;5002513;28;20447;-71
2021/01/10 09:28:16;;;;;;;19.17;15.90;;;;;;;-1.49;99.59;98701.84;5002738;28;20444;-70
2021/01/10 09:30:46;;;;;;;16.77;14.43;;;;;;;-1.15;96.29;98704.63;5003816;28;20665;-71
2021/01/10 09:33:14;;;;;;;13.57;12.10;;;;;;;-1.02;94.11;98703.97;5004210;28;20444;-71
2021/01/10 09:35:43;;;;;;;15.10;13.37;;;;;;;-1.32;96.58;98703.66;5003066;28;20479;-70
2021/01/10 09:38:11;;;;;;;18.00;13.27;;;;;;;-1.08;96.26;98706.00;5003576;28;20455;-70
2021/01/10 09:40:39;;;;;;;15.93;12.97;;;;;;;-1.21;97.35;98704.00;5004362;28;20205;-69
2021/01/10 09:43:06;;;;;;;12.13;10.53;;;;;;;-1.02;96.86;98710.91;5003884;28;20220;-71
2021/01/10 09:45:35;;;;;;;11.17;10.10;;;;;;;-1.03;96.53;98714.44;4999891;28;20240;-71
2021/01/10 09:48:04;;;;;;;20.90;15.50;;;;;;;-0.72;93.66;98712.97;5003726;28;20326;-71
2021/01/10 09:50:32;;;;;;;14.00;12.50;;;;;;;-0.82;93.84;98706.53;5002363;28;20606;-69
2021/01/10 09:52:59;;;;;;;13.50;11.53;;;;;;;-0.81;95.63;98705.59;5002464;28;20562;-69
2021/01/10 09:55:27;;;;;;;23.63;21.30;;;;;;;-0.48;91.90;98703.09;5004458;28;20646;-70
2021/01/10 09:57:54;;;;;;;14.60;13.20;;;;;;;-0.44;91.00;98694.19;5002867;28;20212;-71
2021/01/10 10:00:21;;;;;;;11.63;10.47;;;;;;;-0.47;92.03;98698.75;5003571;28;20208;-70
2021/01/10 10:02:49;;;;;;;13.20;11.87;;;;;;;-0.37;92.68;98701.72;5000373;28;20725;-69
2021/01/10 10:05:18;;;;;;;11.67;10.67;;;;;;;-0.54;91.61;98698.19;5000996;28;20463;-70
2021/01/10 10:07:47;;;;;;;11.73;10.70;;;;;;;-0.54;91.79;98698.19;5002203;28;20228;-69
2021/01/10 10:10:22;;;;;;;12.53;11.23;;;;;;;-0.62;92.32;98701.16;5000622;28;20205;-69
2021/01/10 10:12:57;;;;;;;12.53;11.33;;;;;;;-0.65;94.55;98690.91;4999482;28;20212;-71
2021/01/10 10:15:35;;;;;;;11.33;10.20;;;;;;;-0.34;91.32;98691.16;4999223;28;20491;-69
2021/01/10 10:18:03;;;;;;;13.10;11.80;;;;;;;-0.42;92.17;98683.72;5000716;28;20205;-71
2021/01/10 10:20:31;;;;;;;14.10;12.60;;;;;;;0.07;88.28;98689.91;5004620;28;20564;-69
2021/01/10 10:23:08;;;;;;;13.80;12.30;;;;;;;-0.15;88.41;98686.66;5002176;28;20205;-69
2021/01/10 10:25:35;;;;;;;13.20;11.90;;;;;;;0.02;87.17;98679.75;5003877;28;20255;-68
2021/01/10 10:28:04;;;;;;;12.17;10.30;;;;;;;0.04;86.90;98679.66;5001699;28;20213;-70
2021/01/10 10:30:32;;;;;;;11.40;10.07;;;;;;;0.14;85.53;98681.72;5003600;28;20277;-70
2021/01/10 10:33:00;;;;;;;11.27;10.17;;;;;;;0.11;85.92;98671.44;5002276;28;20212;-69
2021/01/10 10:35:27;;;;;;;11.57;9.90;;;;;;;0.21;84.89;98674.41;5002101;28;20586;-71
2021/01/10 10:37:56;;;;;;;9.60;8.63;;;;;;;0.28;81.97;98680.97;5003537;28;20217;-69
2021/01/10 10:40:23;;;;;;;10.93;9.83;;;;;;;0.50;80.75;98673.75;5003326;28;20209;-70
2021/01/10 10:42:50;;;;;;;9.90;8.90;;;;;;;0.31;82.45;98681.75;5001270;28;20237;-70
2021/01/10 10:45:18;;;;;;;9.80;8.83;;;;;;;0.28;82.34;98667.94;5002496;28;20221;-71
2021/01/10 10:47:45;;;;;;;10.37;8.70;;;;;;;0.34;82.31;98671.13;4999884;28;20205;-69
2021/01/10 10:50:12;;;;;;;9.30;8.27;;;;;;;0.43;81.09;98668.03;5002641;28;20209;-70
2021/01/10 10:52:41;;;;;;;10.63;9.63;;;;;;;0.45;80.44;98668.78;5002381;28;20414;-70
2021/01/10 10:55:12;;;;;;;9.63;8.63;;;;;;;0.49;81.27;98661.66;5001283;28;20646;-70
2021/01/10 10:57:40;;;;;;;10.23;9.20;;;;;;;0.46;81.22;98667.88;5000475;28;20211;-70
2021/01/10 11:00:08;;;;;;;12.00;10.00;;;;;;;0.33;82.02;98662.47;4999032;28;20219;-71
2021/01/10 11:02:35;;;;;;;10.27;8.77;;;;;;;0.13;81.98;98661.78;5000209;28;20579;-70
2021/01/10 11:05:03;;;;;;;10.57;9.47;;;;;;;0.32;81.74;98646.91;4996807;28;20236;-71
2021/01/10 11:07:33;;;;;;;9.70;8.63;;;;;;;0.34;83.07;98652.88;5001083;28;20588;-69
2021/01/10 11:10:00;;;;;;;10.03;8.63;;;;;;;0.27;81.93;98647.16;5000612;28;20217;-69
2021/01/10 11:12:28;;;;;;;9.50;8.53;;;;;;;0.37;82.51;98644.91;5000635;28;20683;-70
2021/01/10 11:14:55;;;;;;;9.83;8.83;;;;;;;0.18;81.80;98647.66;4999794;28;20229;-70
2021/01/10 11:17:22;;;;;;;9.77;8.43;;;;;;;0.46;81.36;98640.97;5001290;28;20205;-71
2021/01/10 11:19:49;;;;;;;9.33;8.43;;;;;;;0.52;80.90;98631.00;5000104;28;20749;-71
2021/01/10 11:22:16;;;;;;;10.33;9.33;;;;;;;0.67;80.91;98631.09;5002772;28;20201;-71
2021/01/10 11:24:44;;;;;;;9.40;8.47;;;;;;;0.90;79.99;98642.00;4999726;28;20324;-71
2021/01/10 11:27:11;;;;;;;10.27;9.27;;;;;;;1.19;78.85;98626.44;5003326;28;20217;-71
2021/01/10 11:29:40;;;;;;;9.63;8.63;;;;;;;1.36;77.69;98631.53;4999541;28;20632;-69
2021/01/10 11:32:07;;;;;;;9.57;8.67;;;;;;;1.27;77.08;98626.84;5002379;28;20212;-71